createdAt,value
2022-11-12T00:01:59.214Z,7.49
2022-11-12T00:04:44.490Z,7.47
2022-11-12T00:07:29.663Z,7.50
2022-11-12T00:10:15.386Z,7.65
2022-11-12T00:13:00.654Z,7.60
2022-11-12T00:15:46.978Z,7.54
2022-11-12T00:18:32.316Z,7.47
2022-11-12T00:21:17.473Z,7.51
2022-11-12T00:24:02.847Z,7.48
2022-11-12T00:26:48.091Z,7.46
2022-11-12T00:29:33.248Z,7.39
2022-11-12T00:32:18.470Z,7.34
2022-11-12T00:35:06.748Z,7.31
2022-11-12T00:37:56.899Z,7.30
2022-11-12T00:40:42.994Z,7.33
2022-11-12T00:43:28.387Z,7.29
2022-11-12T00:46:13.632Z,7.31
2022-11-12T00:48:58.995Z,7.26
2022-11-12T00:51:44.809Z,7.27
2022-11-12T00:54:30.121Z,7.25
2022-11-12T00:57:15.687Z,7.22
2022-11-12T01:00:00.859Z,7.23
2022-11-12T01:02:51.135Z,7.24
2022-11-12T01:05:36.784Z,7.21
2022-11-12T01:08:22.087Z,7.12
2022-11-12T01:11:11.291Z,7.04
2022-11-12T01:13:58.770Z,7.08
2022-11-12T01:16:44.024Z,7.06
2022-11-12T01:19:29.428Z,7.06
2022-11-12T01:22:14.834Z,7.06
2022-11-12T01:25:00.166Z,6.98
2022-11-12T01:27:45.423Z,7.03
2022-11-12T01:30:30.808Z,6.99
2022-11-12T01:33:16.036Z,6.97
2022-11-12T01:36:01.433Z,6.93
2022-11-12T01:38:47.492Z,6.98
2022-11-12T01:41:35.065Z,6.83
2022-11-12T01:44:22.756Z,6.83
2022-11-12T01:47:22.037Z,6.84
2022-11-12T01:50:07.755Z,6.76
2022-11-12T01:52:56.891Z,6.78
2022-11-12T01:55:42.351Z,6.91
2022-11-12T01:58:30.029Z,6.91
2022-11-12T02:01:15.498Z,6.86
2022-11-12T02:04:00.815Z,6.92
2022-11-12T02:06:47.267Z,6.92
2022-11-12T02:09:32.670Z,6.80
2022-11-12T02:12:36.667Z,6.75
2022-11-12T02:15:22.305Z,6.73
2022-11-12T02:18:07.637Z,6.81
2022-11-12T02:20:54.982Z,6.84
2022-11-12T02:23:40.264Z,6.69
2022-11-12T02:26:26.306Z,6.71
2022-11-12T02:29:11.864Z,6.76
2022-11-12T02:31:57.217Z,6.71
2022-11-12T02:34:42.529Z,6.71
2022-11-12T02:37:27.694Z,6.63
2022-11-12T02:40:13.144Z,6.66
2022-11-12T02:42:59.999Z,6.63
2022-11-12T02:45:45.980Z,6.55
2022-11-12T02:48:31.511Z,6.61
2022-11-12T02:51:16.674Z,6.54
2022-11-12T02:54:02.011Z,6.57
2022-11-12T02:56:47.324Z,6.50
2022-11-12T02:59:35.661Z,6.59
2022-11-12T03:02:20.982Z,6.58
2022-11-12T03:05:06.271Z,6.60
2022-11-12T03:07:56.468Z,6.53
2022-11-12T03:10:41.956Z,6.56
2022-11-12T03:13:27.416Z,6.59
2022-11-12T03:16:12.735Z,6.59
2022-11-12T03:18:57.967Z,6.50
2022-11-12T03:21:43.246Z,6.47
2022-11-12T03:24:29.162Z,6.44
2022-11-12T03:27:14.482Z,6.53
2022-11-12T03:29:59.888Z,6.59
2022-11-12T03:32:45.183Z,6.56
2022-11-12T03:35:30.654Z,6.49
2022-11-12T03:38:16.117Z,6.50
2022-11-12T03:41:01.304Z,6.42
2022-11-12T03:43:46.543Z,6.47
2022-11-12T03:46:31.916Z,6.52
2022-11-12T03:49:17.428Z,6.42
2022-11-12T03:52:02.841Z,6.38
2022-11-12T03:54:48.328Z,6.37
2022-11-12T03:57:37.382Z,6.31
2022-11-12T04:00:24.255Z,6.42
2022-11-12T04:03:09.341Z,6.35
2022-11-12T04:06:13.198Z,6.43
2022-11-12T04:08:58.760Z,6.36
2022-11-12T04:11:44.027Z,6.30
2022-11-12T04:14:29.264Z,6.39
2022-11-12T04:17:32.963Z,6.38
2022-11-12T04:20:37.266Z,6.29
2022-11-12T04:23:22.744Z,6.23
2022-11-12T04:26:26.092Z,6.23
2022-11-12T04:29:31.053Z,6.29
2022-11-12T04:32:19.148Z,6.20
2022-11-12T04:35:05.236Z,6.04
2022-11-12T04:37:50.527Z,6.13
2022-11-12T04:40:54.726Z,6.12
2022-11-12T04:43:59.003Z,6.11
2022-11-12T04:46:44.643Z,6.16
2022-11-12T04:49:29.888Z,6.14
2022-11-12T04:52:15.263Z,6.21
2022-11-12T04:55:00.677Z,6.15
2022-11-12T04:57:45.970Z,6.15
2022-11-12T05:00:31.679Z,6.05
2022-11-12T05:03:17.849Z,6.12
2022-11-12T05:06:05.102Z,6.11
2022-11-12T05:08:50.962Z,6.14
2022-11-12T05:11:36.214Z,6.11
2022-11-12T05:14:22.269Z,6.08
2022-11-12T05:17:07.710Z,6.07
2022-11-12T05:19:53.039Z,5.96
2022-11-12T05:22:44.281Z,5.97
2022-11-12T05:25:31.385Z,6.01
2022-11-12T05:28:16.661Z,5.96
2022-11-12T05:31:01.944Z,5.95
2022-11-12T05:33:47.177Z,6.00
2022-11-12T05:36:32.572Z,5.85
2022-11-12T05:39:17.942Z,5.83
2022-11-12T05:42:12.913Z,5.68
2022-11-12T05:44:59.109Z,5.81
2022-11-12T05:47:44.560Z,5.82
2022-11-12T05:50:34.979Z,5.86
2022-11-12T05:53:25.190Z,5.85
2022-11-12T05:56:11.193Z,5.92
2022-11-12T05:58:56.951Z,5.84
2022-11-12T06:01:44.266Z,5.89
2022-11-12T06:04:29.702Z,5.91
2022-11-12T06:07:14.972Z,5.85
2022-11-12T06:10:00.328Z,5.81
2022-11-12T06:12:45.615Z,5.80
2022-11-12T06:15:35.146Z,5.83
2022-11-12T06:18:24.484Z,5.86
2022-11-12T06:21:20.413Z,5.78
2022-11-12T06:24:06.138Z,5.82
2022-11-12T06:26:51.493Z,5.67
2022-11-12T06:29:38.689Z,5.69
2022-11-12T06:32:24.654Z,5.78
2022-11-12T06:35:09.767Z,5.68
2022-11-12T06:37:55.501Z,5.77
2022-11-12T06:40:41.898Z,5.78
2022-11-12T06:43:29.653Z,5.70
2022-11-12T06:46:16.407Z,5.72
2022-11-12T06:49:01.924Z,5.84
2022-11-12T06:51:47.188Z,5.86
2022-11-12T06:54:32.571Z,5.82
2022-11-12T06:57:17.770Z,5.84
2022-11-12T07:00:03.627Z,5.90
2022-11-12T07:02:49.435Z,5.89
2022-11-12T07:05:38.967Z,5.82
2022-11-12T07:08:24.559Z,5.73
2022-11-12T07:11:11.043Z,5.73
2022-11-12T07:13:56.622Z,5.64
2022-11-12T07:16:42.112Z,5.68
2022-11-12T07:19:27.286Z,5.56
2022-11-12T07:22:12.856Z,5.72
2022-11-12T07:24:58.875Z,5.73
2022-11-12T07:27:44.869Z,5.91
2022-11-12T07:30:30.303Z,5.90
2022-11-12T07:33:15.591Z,5.81
2022-11-12T07:36:06.011Z,5.90
2022-11-12T07:38:52.985Z,5.96
2022-11-12T07:41:38.248Z,6.03
2022-11-12T07:44:23.816Z,6.02
2022-11-12T07:47:09.162Z,6.10
2022-11-12T07:49:55.630Z,6.04
2022-11-12T07:52:41.254Z,6.04
2022-11-12T07:55:26.849Z,6.04
2022-11-12T07:58:12.447Z,5.96
2022-11-12T08:00:58.427Z,6.24
2022-11-12T08:03:43.708Z,6.37
2022-11-12T08:06:30.671Z,6.44
2022-11-12T08:09:16.295Z,6.66
2022-11-12T08:12:01.762Z,6.64
2022-11-12T08:14:47.009Z,7.05
2022-11-12T08:17:32.187Z,7.45
2022-11-12T08:20:17.520Z,7.39
2022-11-12T08:23:03.267Z,7.52
2022-11-12T08:25:49.147Z,7.66
2022-11-12T08:28:36.302Z,7.79
2022-11-12T08:31:23.011Z,8.01
2022-11-12T08:34:18.539Z,7.87
2022-11-12T08:37:07.779Z,8.10
2022-11-12T08:39:53.260Z,8.25
2022-11-12T08:42:39.604Z,8.44
2022-11-12T08:45:25.226Z,8.64
2022-11-12T08:48:16.211Z,8.88
2022-11-12T08:51:05.715Z,9.12
2022-11-12T08:53:51.486Z,9.32
2022-11-12T08:56:36.960Z,9.63
2022-11-12T08:59:22.243Z,9.96
2022-11-12T09:02:12.967Z,10.28
2022-11-12T09:04:58.484Z,10.79
2022-11-12T09:07:49.897Z,11.29
2022-11-12T09:10:36.957Z,11.78
2022-11-12T09:13:22.444Z,12.19
2022-11-12T09:16:09.455Z,12.58
2022-11-12T09:18:54.604Z,12.92
2022-11-12T09:21:40.002Z,13.22
2022-11-12T09:24:25.941Z,13.44
2022-11-12T09:27:10.997Z,13.71
2022-11-12T09:29:56.647Z,14.03
2022-11-12T09:32:41.989Z,14.23
2022-11-12T09:35:31.005Z,14.46
2022-11-12T09:38:17.981Z,14.66
2022-11-12T09:41:14.109Z,14.74
2022-11-12T09:44:04.933Z,15.00
2022-11-12T09:46:53.122Z,15.35
2022-11-12T09:49:48.124Z,15.53
2022-11-12T09:52:33.697Z,15.50
2022-11-12T09:55:36.389Z,15.80
2022-11-12T09:58:21.926Z,15.49
2022-11-12T10:01:15.398Z,15.40
2022-11-12T10:04:15.690Z,15.19
2022-11-12T10:07:06.600Z,15.10
2022-11-12T10:10:14.190Z,15.04
2022-11-12T10:13:25.288Z,14.77
2022-11-12T10:16:49.695Z,14.72
2022-11-12T10:19:38.207Z,14.80
2022-11-12T10:22:37.619Z,14.73
2022-11-12T10:25:25.173Z,14.75
2022-11-12T10:28:23.328Z,14.55
2022-11-12T10:31:18.510Z,14.49
2022-11-12T10:34:23.047Z,14.34
2022-11-12T10:37:22.778Z,14.50
2022-11-12T10:40:20.608Z,14.40
2022-11-12T10:43:21.533Z,14.59
2022-11-12T10:46:22.413Z,14.57
2022-11-12T10:49:17.631Z,14.50
2022-11-12T10:52:03.640Z,14.69
2022-11-12T10:54:54.856Z,14.81
2022-11-12T10:57:41.576Z,14.84
2022-11-12T11:00:27.365Z,14.74
2022-11-12T11:03:24.739Z,14.87
2022-11-12T11:06:16.375Z,14.52
2022-11-12T11:09:22.342Z,14.73
2022-11-12T11:12:23.662Z,14.83
2022-11-12T11:15:20.269Z,14.80
2022-11-12T11:18:10.490Z,14.77
2022-11-12T11:21:20.476Z,14.69
2022-11-12T11:24:11.828Z,14.63
2022-11-12T11:27:19.864Z,14.71
2022-11-12T11:30:10.804Z,14.79
2022-11-12T11:33:02.621Z,14.67
2022-11-12T11:35:59.391Z,14.87
2022-11-12T11:38:54.893Z,14.83
2022-11-12T11:41:49.490Z,14.82
2022-11-12T11:44:44.525Z,14.70
2022-11-12T11:47:59.866Z,14.74
2022-11-12T11:51:01.332Z,14.69
2022-11-12T11:53:50.067Z,14.68
2022-11-12T11:56:40.825Z,14.55
2022-11-12T11:59:56.987Z,14.51
2022-11-12T12:03:07.321Z,14.41
2022-11-12T12:06:01.822Z,14.36
2022-11-12T12:08:59.925Z,14.31
2022-11-12T12:11:58.003Z,14.23
2022-11-12T12:14:46.231Z,14.36
2022-11-12T12:17:44.158Z,14.26
2022-11-12T12:20:40.181Z,14.16
2022-11-12T12:23:33.405Z,14.18
2022-11-12T12:26:33.332Z,14.29
2022-11-12T12:29:36.768Z,14.19
2022-11-12T12:32:27.830Z,14.24
2022-11-12T12:35:23.247Z,14.09
2022-11-12T12:38:15.948Z,14.07
2022-11-12T12:41:33.264Z,14.07
2022-11-12T12:44:18.534Z,14.04
2022-11-12T12:47:04.194Z,14.02
2022-11-12T12:49:50.268Z,14.05
2022-11-12T12:53:25.369Z,14.14
2022-11-12T12:56:11.288Z,14.09
2022-11-12T12:58:58.430Z,14.17
2022-11-12T13:01:44.072Z,13.99
2022-11-12T13:04:55.705Z,13.97
2022-11-12T13:07:51.021Z,13.95
2022-11-12T13:10:41.516Z,14.07
2022-11-12T13:13:33.027Z,14.24
2022-11-12T13:16:54.071Z,14.15
2022-11-12T13:19:53.115Z,14.08
2022-11-12T13:22:38.634Z,14.20
2022-11-12T13:25:29.563Z,14.13
2022-11-12T13:28:14.991Z,14.08
2022-11-12T13:31:02.168Z,14.08
2022-11-12T13:33:48.628Z,14.15
2022-11-12T13:36:34.575Z,14.09
2022-11-12T13:39:20.642Z,14.16
2022-11-12T13:42:36.511Z,14.06
2022-11-12T13:45:24.217Z,14.09
2022-11-12T13:48:13.969Z,14.14
2022-11-12T13:51:02.872Z,14.06
2022-11-12T13:53:48.238Z,14.02
2022-11-12T13:56:35.444Z,14.06
2022-11-12T13:59:23.092Z,13.92
2022-11-12T14:02:19.094Z,13.87
2022-11-12T14:05:13.164Z,13.92
2022-11-12T14:08:21.811Z,13.87
2022-11-12T14:11:35.663Z,13.87
2022-11-12T14:14:26.642Z,13.89
2022-11-12T14:17:49.147Z,13.90
2022-11-12T14:20:37.163Z,13.86
2022-11-12T14:23:25.093Z,13.71
2022-11-12T14:26:12.848Z,13.70
2022-11-12T14:28:58.362Z,13.62
2022-11-12T14:31:44.291Z,13.65
2022-11-12T14:34:33.153Z,13.52
2022-11-12T14:37:42.911Z,13.43
2022-11-12T14:40:29.879Z,13.50
2022-11-12T14:43:38.971Z,13.27
2022-11-12T14:46:38.748Z,13.24
2022-11-12T14:49:34.343Z,13.17
2022-11-12T14:52:27.904Z,13.16
2022-11-12T14:55:20.187Z,13.11
2022-11-12T14:58:05.915Z,13.03
2022-11-12T15:00:53.608Z,12.91
2022-11-12T15:03:48.555Z,12.89
2022-11-12T15:06:38.127Z,12.81
2022-11-12T15:09:36.468Z,12.66
2022-11-12T15:12:31.688Z,12.62
2022-11-12T15:15:26.642Z,12.54
2022-11-12T15:18:18.962Z,12.44
2022-11-12T15:21:18.414Z,12.37
2022-11-12T15:24:35.039Z,12.28
2022-11-12T15:27:39.129Z,12.12
2022-11-12T15:30:27.603Z,12.08
2022-11-12T15:33:13.799Z,12.03
2022-11-12T15:36:00.395Z,11.89
2022-11-12T15:38:53.268Z,11.81
2022-11-12T15:41:39.125Z,11.82
2022-11-12T15:44:24.570Z,11.74
2022-11-12T15:47:18.354Z,11.65
2022-11-12T15:50:16.584Z,11.60
2022-11-12T15:53:01.808Z,11.49
2022-11-12T15:55:47.479Z,11.41
2022-11-12T15:58:34.726Z,11.39
2022-11-12T16:01:20.193Z,11.30
2022-11-12T16:04:05.445Z,11.23
2022-11-12T16:06:50.852Z,11.19
2022-11-12T16:09:36.151Z,11.16
2022-11-12T16:12:21.471Z,11.03
2022-11-12T16:15:16.569Z,10.93
2022-11-12T16:18:02.176Z,10.92
2022-11-12T16:20:48.708Z,10.87
2022-11-12T16:23:34.314Z,10.82
2022-11-12T16:26:24.582Z,10.64
2022-11-12T16:29:13.093Z,10.69
2022-11-12T16:31:58.323Z,10.62
2022-11-12T16:34:43.782Z,10.59
2022-11-12T16:37:29.096Z,10.49
2022-11-12T16:40:23.472Z,10.40
2022-11-12T16:43:09.089Z,10.35
2022-11-12T16:45:54.603Z,10.29
2022-11-12T16:48:39.998Z,10.30
2022-11-12T16:51:25.376Z,10.23
2022-11-12T16:54:10.770Z,10.22
2022-11-12T16:56:56.856Z,10.21
2022-11-12T16:59:42.237Z,10.15
2022-11-12T17:02:27.553Z,9.97
2022-11-12T17:05:20.198Z,10.05
2022-11-12T17:08:05.564Z,10.00
2022-11-12T17:10:51.022Z,9.91
2022-11-12T17:13:38.989Z,9.92
2022-11-12T17:16:24.371Z,9.76
2022-11-12T17:19:09.897Z,9.76
2022-11-12T17:21:55.522Z,9.75
2022-11-12T17:24:40.901Z,9.66
2022-11-12T17:27:26.372Z,9.65
2022-11-12T17:30:12.186Z,9.57
2022-11-12T17:32:59.625Z,9.56
2022-11-12T17:35:44.876Z,9.45
2022-11-12T17:38:30.442Z,9.48
2022-11-12T17:41:15.828Z,9.50
2022-11-12T17:44:01.943Z,9.42
2022-11-12T17:46:47.706Z,9.41
2022-11-12T17:49:33.097Z,9.31
2022-11-12T17:52:18.692Z,9.25
2022-11-12T17:55:04.180Z,9.23
2022-11-12T17:57:49.427Z,9.24
2022-11-12T18:00:36.692Z,9.22
2022-11-12T18:03:21.924Z,9.09
2022-11-12T18:06:12.519Z,9.04
2022-11-12T18:09:00.082Z,8.98
2022-11-12T18:11:48.319Z,9.02
2022-11-12T18:14:33.693Z,9.04
2022-11-12T18:17:19.457Z,8.95
2022-11-12T18:20:05.706Z,8.97
2022-11-12T18:22:50.814Z,8.91
2022-11-12T18:25:38.502Z,8.79
2022-11-12T18:28:24.075Z,8.80
2022-11-12T18:31:12.244Z,8.82
2022-11-12T18:33:58.073Z,8.82
2022-11-12T18:36:44.398Z,8.79
2022-11-12T18:39:31.004Z,8.69
2022-11-12T18:42:16.451Z,8.63
2022-11-12T18:45:01.847Z,8.54
2022-11-12T18:47:47.217Z,8.46
2022-11-12T18:50:32.667Z,8.53
2022-11-12T18:53:18.159Z,8.61
2022-11-12T18:56:07.273Z,8.54
2022-11-12T18:58:52.844Z,8.42
2022-11-12T19:01:38.374Z,8.50
2022-11-12T19:04:23.878Z,8.46
2022-11-12T19:07:09.766Z,8.39
2022-11-12T19:09:55.430Z,8.34
2022-11-12T19:12:40.773Z,8.28
2022-11-12T19:15:27.123Z,8.23
2022-11-12T19:18:14.230Z,8.21
2022-11-12T19:21:20.271Z,8.24
2022-11-12T19:24:05.839Z,8.17
2022-11-12T19:26:51.735Z,8.16
2022-11-12T19:29:36.729Z,8.15
2022-11-12T19:32:22.920Z,8.10
2022-11-12T19:35:08.904Z,8.11
2022-11-12T19:37:54.185Z,8.09
2022-11-12T19:40:39.797Z,8.03
2022-11-12T19:43:25.111Z,8.04
2022-11-12T19:46:11.143Z,8.04
2022-11-12T19:48:57.012Z,8.09
2022-11-12T19:51:42.788Z,8.00
2022-11-12T19:54:28.415Z,7.94
2022-11-12T19:57:13.792Z,7.97
2022-11-12T19:59:59.237Z,7.85
2022-11-12T20:02:44.643Z,7.81
2022-11-12T20:05:30.478Z,7.93
2022-11-12T20:08:15.710Z,7.96
2022-11-12T20:11:01.543Z,7.87
2022-11-12T20:13:47.222Z,7.83
2022-11-12T20:16:33.179Z,7.86
2022-11-12T20:19:19.724Z,7.90
2022-11-12T20:22:05.249Z,7.87
2022-11-12T20:24:50.621Z,7.86
2022-11-12T20:27:35.993Z,7.83
2022-11-12T20:30:21.370Z,7.81
2022-11-12T20:33:06.863Z,7.79
2022-11-12T20:35:52.150Z,7.80
2022-11-12T20:38:38.841Z,7.62
2022-11-12T20:41:26.044Z,7.60
2022-11-12T20:44:11.600Z,7.63
2022-11-12T20:46:58.291Z,7.68
2022-11-12T20:49:43.648Z,7.63
2022-11-12T20:52:29.242Z,7.73
2022-11-12T20:55:14.698Z,7.72
2022-11-12T20:58:00.273Z,7.62
2022-11-12T21:00:45.886Z,7.69
2022-11-12T21:03:31.557Z,7.67
2022-11-12T21:06:19.666Z,7.68
2022-11-12T21:09:04.843Z,7.66
2022-11-12T21:11:50.099Z,7.68
2022-11-12T21:14:35.280Z,7.60
2022-11-12T21:17:20.842Z,7.51
2022-11-12T21:20:06.686Z,7.54
2022-11-12T21:22:51.805Z,7.66
2022-11-12T21:25:40.820Z,7.70
2022-11-12T21:28:26.362Z,7.65
2022-11-12T21:31:14.557Z,7.65
2022-11-12T21:34:03.740Z,7.82
2022-11-12T21:36:48.914Z,7.78
2022-11-12T21:39:34.161Z,7.69
2022-11-12T21:42:19.487Z,7.79
2022-11-12T21:45:06.513Z,7.77
2022-11-12T21:47:53.409Z,7.91
2022-11-12T21:50:39.297Z,7.92
2022-11-12T21:53:24.976Z,7.89
2022-11-12T21:56:12.934Z,7.90
2022-11-12T21:59:01.668Z,7.88
2022-11-12T22:01:46.982Z,7.87
2022-11-12T22:04:32.570Z,7.81
2022-11-12T22:07:18.465Z,7.89
2022-11-12T22:10:03.895Z,7.87
2022-11-12T22:13:11.962Z,7.83
2022-11-12T22:15:54.707Z,7.83
2022-11-12T22:18:41.774Z,7.91
2022-11-12T22:21:30.672Z,7.85
2022-11-12T22:24:18.020Z,7.75
2022-11-12T22:27:05.671Z,7.71
2022-11-12T22:29:52.018Z,7.77
2022-11-12T22:32:37.294Z,7.89
2022-11-12T22:35:22.554Z,7.84
2022-11-12T22:38:07.775Z,7.74
2022-11-12T22:40:53.309Z,7.74
2022-11-12T22:43:38.781Z,7.94
2022-11-12T22:46:26.451Z,7.90
2022-11-12T22:49:12.229Z,7.86
2022-11-12T22:51:58.489Z,7.87
2022-11-12T22:54:44.023Z,7.80
2022-11-12T22:57:29.337Z,7.87
2022-11-12T23:00:15.314Z,7.81
2022-11-12T23:03:01.232Z,7.98
2022-11-12T23:05:46.747Z,7.95
2022-11-12T23:08:32.860Z,7.96
2022-11-12T23:11:19.918Z,8.03
2022-11-12T23:14:05.604Z,8.12
2022-11-12T23:16:51.809Z,8.06
2022-11-12T23:19:37.582Z,7.98
2022-11-12T23:22:22.994Z,8.07
2022-11-12T23:25:09.260Z,8.24
2022-11-12T23:27:54.646Z,8.11
2022-11-12T23:30:39.908Z,8.04
2022-11-12T23:33:25.431Z,8.11
2022-11-12T23:36:11.420Z,8.12
2022-11-12T23:38:58.432Z,8.15
2022-11-12T23:41:44.143Z,8.12
2022-11-12T23:44:29.480Z,8.14
2022-11-12T23:47:17.748Z,8.21
2022-11-12T23:50:03.362Z,8.24
2022-11-12T23:52:48.886Z,8.29
2022-11-12T23:55:38.455Z,8.30
2022-11-12T23:58:24.592Z,8.48
